Time;durP1;ratioP1;P1;durP2;ratioP2;P2;SDS_P1;SDS_P2;PMS_P1;PMS_P2;Temp;Humidity;BMP_temperature;BMP_pressure;BME280_temperature;BME280_humidity;BME280_pressure;Samples;Min_cycle;Max_cycle;Signal;HPM_P1;HPM_P2
2024/01/10 00:01:05;;;;;;;27.30;25.80;;;;;;;-141.02;100.00;38875.91;5092083;28;20198;-71
2024/01/10 00:03:32;;;;;;;27.10;25.70;;;;;;;-141.02;100.00;38856.72;5092001;28;20194;-70
2024/01/10 00:05:59;;;;;;;26.13;24.83;;;;;;;-141.02;100.00;38826.06;5092009;28;20701;-72
2024/01/10 00:08:26;;;;;;;29.37;27.87;;;;;;;-141.02;100.00;38826.06;5092300;28;20240;-71
2024/01/10 00:10:55;;;;;;;30.60;29.00;;;;;;;-141.02;100.00;38843.31;5092132;28;20201;-69
2024/01/10 00:13:22;;;;;;;28.33;26.93;;;;;;;-141.02;100.00;38776.19;5092288;28;20200;-71
2024/01/10 00:15:49;;;;;;;25.53;24.23;;;;;;;-141.02;100.00;38783.88;5091755;28;20312;-71
2024/01/10 00:18:16;;;;;;;26.03;24.73;;;;;;;-141.02;100.00;38803.03;5092251;28;20212;-70
2024/01/10 00:20:43;;;;;;;24.70;23.50;;;;;;;-141.02;100.00;38849.06;5091910;28;20194;-71
2024/01/10 00:23:10;;;;;;;28.73;27.30;;;;;;;-141.02;100.00;38872.06;5092186;28;20221;-70
2024/01/10 00:25:37;;;;;;;33.07;31.33;;;;;;;-141.02;100.00;38852.91;5091738;28;20233;-70
2024/01/10 00:28:05;;;;;;;32.73;30.83;;;;;;;-141.02;100.00;38860.56;5092140;28;20194;-71
2024/01/10 00:30:32;;;;;;;32.47;30.67;;;;;;;-141.02;100.00;38872.06;5091811;28;20194;-70
2024/01/10 00:32:59;;;;;;;33.93;32.13;;;;;;;-141.02;100.00;38895.09;5091755;28;20280;-70
2024/01/10 00:35:26;;;;;;;30.50;28.90;;;;;;;-141.02;100.00;38910.44;5092023;28;20216;-71
2024/01/10 00:37:53;;;;;;;30.47;28.87;;;;;;;-141.02;100.00;38887.41;5091929;28;20186;-70
2024/01/10 00:40:20;;;;;;;29.57;28.07;;;;;;;-141.02;100.00;38935.34;5091976;28;20273;-71
2024/01/10 00:42:48;;;;;;;29.10;27.60;;;;;;;-141.02;100.00;38895.09;5091973;28;20202;-70
2024/01/10 00:45:17;;;;;;;33.20;31.40;;;;;;;-141.02;100.00;38906.59;5091575;28;20316;-66
2024/01/10 00:47:44;;;;;;;32.07;30.43;;;;;;;-141.02;100.00;38937.28;5091952;28;20232;-72
2024/01/10 00:50:11;;;;;;;31.70;30.00;;;;;;;-141.02;100.00;38933.44;5091693;28;20744;-71
2024/01/10 00:52:38;;;;;;;33.57;31.77;;;;;;;-141.02;100.00;38900.84;5091939;28;20229;-72
2024/01/10 00:55:05;;;;;;;23.87;22.57;;;;;;;-141.02;100.00;38902.75;5091610;28;20707;-69
2024/01/10 00:57:32;;;;;;;23.03;21.83;;;;;;;-141.02;100.00;38879.75;5091905;28;20196;-72
2024/01/10 00:59:59;;;;;;;25.20;24.00;;;;;;;-141.02;100.00;38941.09;5091581;28;20194;-69
2024/01/10 01:02:28;;;;;;;23.60;22.40;;;;;;;-141.02;100.00;38923.84;5091499;28;20682;-70
2024/01/10 01:04:55;;;;;;;28.13;26.73;;;;;;;-141.02;100.00;38941.09;5091765;28;20233;-69
2024/01/10 01:07:22;;;;;;;27.77;26.37;;;;;;;-141.02;100.00;38921.94;5093127;28;20284;-72
2024/01/10 01:09:49;;;;;;;27.50;26.17;;;;;;;-141.02;100.00;38900.84;5095430;28;20232;-70
2024/01/10 01:12:16;;;;;;;27.50;26.10;;;;;;;-141.02;100.00;38962.19;5095455;28;20204;-71
2024/01/10 01:14:43;;;;;;;29.30;27.80;;;;;;;-141.02;100.00;38994.78;5094786;28;20280;-71
2024/01/10 01:17:10;;;;;;;27.93;26.43;;;;;;;-141.02;100.00;38958.38;5094991;28;20284;-71
2024/01/10 01:19:38;;;;;;;21.70;20.60;;;;;;;-141.02;100.00;38952.59;5095271;28;20281;-70
2024/01/10 01:22:05;;;;;;;28.43;26.97;;;;;;;-141.02;100.00;38941.09;5094926;28;20258;-70
2024/01/10 01:24:32;;;;;;;31.47;29.77;;;;;;;-141.02;100.00;38948.78;5095107;28;20198;-71
2024/01/10 01:26:59;;;;;;;33.10;31.30;;;;;;;-141.02;100.00;38956.44;5095069;28;20296;-69
2024/01/10 01:29:26;;;;;;;32.43;30.73;;;;;;;-141.02;100.00;38967.94;5094723;28;20648;-71
2024/01/10 01:31:53;;;;;;;32.47;30.87;;;;;;;-141.02;100.00;38983.28;5094998;28;20281;-71
2024/01/10 01:34:20;;;;;;;32.03;30.40;;;;;;;-141.02;100.00;38967.94;5094668;28;20190;-72
2024/01/10 01:36:51;;;;;;;34.70;32.90;;;;;;;-141.02;100.00;39006.31;5094642;28;20679;-72
2024/01/10 01:39:17;;;;;;;33.20;31.50;;;;;;;-141.02;100.00;38975.63;5094908;28;20186;-71
2024/01/10 01:41:44;;;;;;;28.07;26.57;;;;;;;-141.02;100.00;38985.22;5094879;28;20190;-70
2024/01/10 01:44:11;;;;;;;28.07;26.63;;;;;;;-141.02;100.00;39033.16;5094425;28;20229;-73
2024/01/10 01:46:40;;;;;;;28.43;26.93;;;;;;;-141.02;100.00;39013.97;5094375;28;20239;-71
2024/01/10 01:49:07;;;;;;;29.33;27.83;;;;;;;-141.02;100.00;39067.66;5094606;28;20222;-71
2024/01/10 01:51:37;;;;;;;29.53;27.93;;;;;;;-141.02;100.00;39061.91;5094662;28;20194;-71
2024/01/10 01:54:08;;;;;;;25.80;24.33;;;;;;;-141.02;99.25;39121.34;5094370;28;20194;-71
2024/01/10 01:56:37;;;;;;;30.17;28.47;;;;;;;-141.02;99.83;39094.50;5094566;28;20205;-70
2024/01/10 01:59:05;;;;;;;34.20;32.40;;;;;;;-141.02;100.00;39071.50;5094525;28;20194;-69
2024/01/10 02:01:32;;;;;;;37.07;35.07;;;;;;;-141.02;100.00;39125.19;5094101;28;20664;-69
2024/01/10 02:04:01;;;;;;;35.13;33.20;;;;;;;-141.02;92.82;39090.69;5094127;28;20659;-72
2024/01/10 02:06:30;;;;;;;36.67;34.67;;;;;;;-141.02;82.27;39125.19;5094010;28;20214;-71
2024/01/10 02:08:58;;;;;;;38.37;36.27;;;;;;;-141.02;80.16;39167.38;5093972;28;20209;-70
2024/01/10 02:11:27;;;;;;;39.37;37.07;;;;;;;-141.02;76.97;39230.66;5094241;28;20189;-71
2024/01/10 02:13:55;;;;;;;38.67;36.47;;;;;;;-141.02;71.39;39278.59;5094243;28;20277;-72
2024/01/10 02:16:22;;;;;;;34.47;32.47;;;;;;;-141.02;79.21;39305.44;5093693;28;20746;-70
2024/01/10 02:18:50;;;;;;;38.10;36.00;;;;;;;-141.02;79.72;39316.97;5092695;28;20674;-71
2024/01/10 02:21:17;;;;;;;38.10;36.00;;;;;;;-141.02;85.04;39303.53;5094040;28;20202;-71
2024/01/10 02:23:44;;;;;;;35.37;33.37;;;;;;;-141.02;77.99;39311.22;5093985;28;20199;-71
2024/01/10 02:26:12;;;;;;;35.50;33.50;;;;;;;-141.02;80.34;39332.31;5093566;28;20222;-71
2024/01/10 02:28:39;;;;;;;32.07;30.27;;;;;;;-141.02;76.98;39339.97;5093605;28;20200;-71
2024/01/10 02:31:07;;;;;;;34.47;32.50;;;;;;;-141.02;76.88;39286.28;5093835;28;20193;-72
2024/01/10 02:33:35;;;;;;;32.47;30.47;;;;;;;-141.02;66.84;39378.31;5093591;28;20662;-71
2024/01/10 02:36:02;;;;;;;35.17;33.17;;;;;;;-141.02;65.43;39414.75;5093787;28;20193;-70
2024/01/10 02:38:28;;;;;;;36.20;34.20;;;;;;;-141.02;64.49;39476.13;5093667;28;20196;-71
2024/01/10 02:40:56;;;;;;;37.07;34.97;;;;;;;-141.02;80.27;39455.03;5093641;28;20226;-72
2024/01/10 02:43:24;;;;;;;37.33;35.23;;;;;;;-141.02;95.46;39370.66;5093610;28;20221;-71
2024/01/10 02:45:51;;;;;;;37.13;35.03;;;;;;;-141.02;100.00;39305.44;5093189;28;20577;-71
2024/01/10 02:48:18;;;;;;;36.23;34.23;;;;;;;-141.02;99.16;39280.53;5093186;28;20663;-71
2024/01/10 02:50:45;;;;;;;37.73;35.57;;;;;;;-141.02;100.00;39244.09;5093474;28;20200;-71
2024/01/10 02:53:12;;;;;;;37.77;35.57;;;;;;;-141.02;100.00;39238.34;5093432;28;20189;-70
2024/01/10 02:55:39;;;;;;;36.97;34.87;;;;;;;-141.02;99.25;39270.94;5093395;28;20208;-69
2024/01/10 02:58:06;;;;;;;36.20;34.10;;;;;;;-141.02;100.00;39247.91;5093312;28;20284;-70
2024/01/10 03:00:34;;;;;;;38.67;36.37;;;;;;;-141.02;97.52;39286.28;5093337;28;20194;-69
2024/01/10 03:03:01;;;;;;;38.90;36.70;;;;;;;-141.02;98.13;39255.59;5093005;28;20204;-71
2024/01/10 03:05:28;;;;;;;37.07;34.97;;;;;;;-141.02;91.99;39280.53;5093140;28;20225;-72
2024/01/10 03:07:55;;;;;;;37.17;35.07;;;;;;;-141.02;87.56;39326.56;5092942;28;20197;-70
2024/01/10 03:10:22;;;;;;;36.70;34.60;;;;;;;-141.02;91.50;39332.31;5093145;28;20225;-71
2024/01/10 03:12:49;;;;;;;31.00;29.20;;;;;;;-141.02;89.33;39359.16;5092816;28;20311;-69
2024/01/10 03:15:16;;;;;;;33.80;31.90;;;;;;;-141.02;88.98;39336.13;5092760;28;20242;-69
2024/01/10 03:17:44;;;;;;;32.83;30.93;;;;;;;-141.02;89.33;39328.47;5092948;28;20277;-71
2024/01/10 03:20:12;;;;;;;32.93;31.13;;;;;;;-141.02;88.39;39297.78;5092951;28;20635;-70
2024/01/10 03:22:39;;;;;;;31.57;29.77;;;;;;;-141.02;87.82;39305.44;5092635;28;20244;-71
2024/01/10 03:25:06;;;;;;;31.87;30.07;;;;;;;-141.02;86.54;39351.47;5092593;28;20204;-70
2024/01/10 03:27:33;;;;;;;34.60;32.70;;;;;;;-141.02;87.50;39332.31;5092834;28;20225;-70
2024/01/10 03:30:00;;;;;;;35.00;33.10;;;;;;;-141.02;90.95;39315.03;5092200;28;20649;-71
2024/01/10 03:32:27;;;;;;;37.00;34.90;;;;;;;-141.02;93.79;39343.81;5092529;28;20280;-71
2024/01/10 03:34:55;;;;;;;36.90;34.80;;;;;;;-141.02;97.06;39297.78;5092388;28;20194;-69
2024/01/10 03:37:22;;;;;;;36.33;34.33;;;;;;;-141.02;99.68;39318.88;5092421;28;20197;-70
2024/01/10 03:39:49;;;;;;;36.80;34.70;;;;;;;-141.02;98.08;39288.19;5092670;28;20277;-71
2024/01/10 03:42:16;;;;;;;35.83;33.83;;;;;;;-141.02;100.00;39284.34;5092329;28;20200;-70
2024/01/10 03:44:43;;;;;;;37.20;35.10;;;;;;;-141.02;100.00;39240.25;5092641;28;20611;-71
2024/01/10 03:47:10;;;;;;;33.03;31.13;;;;;;;-141.02;99.67;39263.25;5092108;28;20236;-71
2024/01/10 03:49:37;;;;;;;35.20;33.20;;;;;;;-141.02;100.00;39251.75;5092157;28;20197;-70
2024/01/10 03:52:06;;;;;;;35.30;33.30;;;;;;;-141.02;100.00;39223.00;5092489;28;20216;-70
2024/01/10 03:54:33;;;;;;;35.17;33.27;;;;;;;-141.02;100.00;39171.22;5092479;28;20553;-71
2024/01/10 03:57:00;;;;;;;29.67;27.97;;;;;;;-141.02;100.00;39180.81;5092409;28;20198;-70
2024/01/10 03:59:27;;;;;;;29.83;28.20;;;;;;;-141.02;100.00;39167.38;5092366;28;20194;-69
2024/01/10 04:01:54;;;;;;;32.60;30.80;;;;;;;-141.02;100.00;39109.84;5092374;28;20222;-69
2024/01/10 04:04:22;;;;;;;32.97;31.20;;;;;;;-141.02;100.00;39071.50;5092069;28;20203;-71
2024/01/10 04:06:49;;;;;;;29.23;27.73;;;;;;;-141.02;100.00;39025.47;5091930;28;20261;-72
2024/01/10 04:09:17;;;;;;;31.83;30.13;;;;;;;-141.02;100.00;38964.13;5091967;28;20694;-71
2024/01/10 04:11:44;;;;;;;34.70;32.80;;;;;;;-141.02;100.00;38962.19;5092014;28;20189;-71
2024/01/10 04:14:11;;;;;;;35.13;33.20;;;;;;;-141.02;100.00;38975.63;5092085;28;20190;-71
2024/01/10 04:16:38;;;;;;;30.20;28.60;;;;;;;-141.02;100.00;38921.94;5091974;28;20185;-70
2024/01/10 04:19:06;;;;;;;32.13;30.33;;;;;;;-141.02;100.00;38925.75;5092233;28;20196;-70
2024/01/10 04:21:33;;;;;;;29.07;27.47;;;;;;;-141.02;100.00;38898.91;5092333;28;20208;-70
2024/01/10 04:23:59;;;;;;;32.10;30.40;;;;;;;-141.02;100.00;38914.25;5092218;28;20197;-71
2024/01/10 04:26:28;;;;;;;31.67;29.97;;;;;;;-141.02;100.00;38891.25;5091759;28;20233;-70
2024/01/10 04:28:54;;;;;;;26.17;24.67;;;;;;;-141.02;100.00;38920.00;5092138;28;20200;-71
2024/01/10 04:31:22;;;;;;;24.40;23.10;;;;;;;-141.02;100.00;38971.78;5092188;28;20194;-71
2024/01/10 04:33:49;;;;;;;35.93;34.03;;;;;;;-141.02;100.00;38952.59;5091743;28;20196;-70
2024/01/10 04:36:16;;;;;;;34.40;32.60;;;;;;;-141.02;100.00;38956.44;5092057;28;20198;-69
2024/01/10 04:38:43;;;;;;;32.17;30.47;;;;;;;-141.02;100.00;38998.63;5091823;28;20194;-71
2024/01/10 04:41:10;;;;;;;31.27;29.57;;;;;;;-141.02;100.00;39027.41;5091630;28;20229;-70
2024/01/10 04:43:38;;;;;;;31.20;29.60;;;;;;;-141.02;100.00;39010.13;5095518;28;20585;-73
2024/01/10 04:46:05;;;;;;;28.43;26.93;;;;;;;-141.02;100.00;39063.81;5095486;28;20767;-69
2024/01/10 04:48:32;;;;;;;25.83;24.33;;;;;;;-141.02;100.00;39094.50;5095507;28;20197;-69
2024/01/10 04:50:59;;;;;;;26.27;24.80;;;;;;;-141.02;100.00;39075.34;5095863;28;20190;-69
2024/01/10 04:53:26;;;;;;;25.27;23.87;;;;;;;-141.02;99.89;39138.63;5095726;28;20282;-71
2024/01/10 04:55:53;;;;;;;25.67;24.27;;;;;;;-141.02;100.00;39117.53;5095460;28;20240;-71
2024/01/10 04:58:20;;;;;;;28.40;26.80;;;;;;;-141.02;100.00;39056.16;5095666;28;20277;-70
2024/01/10 05:00:48;;;;;;;28.00;26.40;;;;;;;-141.02;100.00;39083.00;5095324;28;20208;-71
2024/01/10 05:03:15;;;;;;;26.97;25.37;;;;;;;-141.02;100.00;39060.00;5095553;28;20204;-72
2024/01/10 05:05:42;;;;;;;27.47;25.87;;;;;;;-141.02;100.00;39129.03;5095435;28;20190;-70
2024/01/10 05:08:09;;;;;;;35.13;33.03;;;;;;;-141.02;100.00;39094.50;5095230;28;20226;-70
2024/01/10 05:10:36;;;;;;;34.23;32.13;;;;;;;-141.02;100.00;39094.50;5095091;28;20284;-70
2024/01/10 05:13:03;;;;;;;33.70;31.57;;;;;;;-141.02;100.00;39090.69;5095037;28;20642;-71
2024/01/10 05:15:30;;;;;;;31.93;29.83;;;;;;;-141.02;100.00;39010.13;5094967;28;20233;-71
2024/01/10 05:17:59;;;;;;;32.47;30.37;;;;;;;-141.02;100.00;39048.50;5095311;28;20590;-70
2024/01/10 05:20:26;;;;;;;32.10;30.00;;;;;;;-141.02;100.00;38979.47;5094972;28;20685;-70
2024/01/10 05:22:52;;;;;;;29.80;27.90;;;;;;;-141.02;100.00;38923.84;5095245;28;20228;-70
2024/01/10 05:25:19;;;;;;;26.33;24.63;;;;;;;-141.02;100.00;38875.91;5095250;28;20194;-72
2024/01/10 05:27:46;;;;;;;24.40;22.90;;;;;;;-141.02;100.00;38845.22;5095032;28;20236;-71
2024/01/10 05:30:14;;;;;;;23.77;22.17;;;;;;;-141.02;100.00;38770.44;5094832;28;20198;-71
2024/01/10 05:32:41;;;;;;;25.47;23.87;;;;;;;-141.02;100.00;38837.56;5095095;28;20190;-70
2024/01/10 05:35:10;;;;;;;26.60;25.00;;;;;;;-141.02;100.00;38868.25;5094691;28;20687;-71
2024/01/10 05:37:37;;;;;;;22.70;21.50;;;;;;;-141.02;100.00;38989.03;5094984;28;20213;-68
2024/01/10 05:40:06;;;;;;;25.37;23.87;;;;;;;-141.02;100.00;39052.31;5094865;28;20271;-69
2024/01/10 05:42:33;;;;;;;27.10;25.60;;;;;;;-141.02;100.00;39094.50;5094563;28;20200;-71
2024/01/10 05:45:02;;;;;;;28.10;26.40;;;;;;;-141.02;100.00;39175.06;5094824;28;20198;-71
2024/01/10 05:47:29;;;;;;;24.60;23.20;;;;;;;-141.02;100.00;39186.56;5094395;28;20232;-67
2024/01/10 05:49:56;;;;;;;25.13;23.73;;;;;;;-141.02;100.00;39263.25;5094752;28;20285;-71
2024/01/10 05:52:24;;;;;;;24.90;23.50;;;;;;;-141.02;100.00;39292.03;5094430;28;20273;-70
2024/01/10 05:54:52;;;;;;;24.77;23.37;;;;;;;-141.02;100.00;39347.66;5094270;28;20281;-69
2024/01/10 05:57:18;;;;;;;24.77;23.37;;;;;;;-141.02;100.00;39405.19;5094499;28;20208;-69
2024/01/10 05:59:45;;;;;;;25.10;23.60;;;;;;;-141.02;100.00;39456.97;5094534;28;20273;-67
2024/01/10 06:02:16;;;;;;;24.60;23.20;;;;;;;-141.02;100.00;39462.72;5094462;28;20190;-68
2024/01/10 06:04:43;;;;;;;25.03;23.60;;;;;;;-141.02;100.00;39508.75;5094187;28;20197;-71
2024/01/10 06:07:10;;;;;;;24.90;23.50;;;;;;;-141.02;100.00;39554.78;5094318;28;20356;-71
2024/01/10 06:09:39;;;;;;;23.70;22.40;;;;;;;-141.02;100.00;39612.31;5094295;28;20273;-70
2024/01/10 06:12:08;;;;;;;22.80;21.50;;;;;;;-141.02;100.00;39673.69;5093995;28;20197;-71
2024/01/10 06:14:34;;;;;;;21.47;20.27;;;;;;;-141.02;100.00;39692.84;5093623;28;20269;-69
2024/01/10 06:17:03;;;;;;;21.60;20.40;;;;;;;-141.02;100.00;39627.66;5093974;28;20272;-69
2024/01/10 06:19:30;;;;;;;21.30;20.10;;;;;;;-141.02;100.00;39600.78;5094136;28;20578;-71
2024/01/10 06:21:57;;;;;;;22.03;20.83;;;;;;;-141.02;100.00;39750.41;5093742;28;20229;-70
2024/01/10 06:24:24;;;;;;;21.77;20.57;;;;;;;-141.02;100.00;39796.44;5094069;28;20204;-71
2024/01/10 06:26:53;;;;;;;22.43;21.23;;;;;;;-141.02;100.00;39779.16;5093539;28;20601;-71
2024/01/10 06:29:20;;;;;;;24.87;23.47;;;;;;;-141.02;100.00;39781.09;5093624;28;20288;-71
2024/01/10 06:31:47;;;;;;;25.37;23.97;;;;;;;-141.02;100.00;39800.25;5093626;28;20684;-70
2024/01/10 06:34:14;;;;;;;24.57;23.17;;;;;;;-141.02;100.00;39821.38;5093818;28;20571;-71
2024/01/10 06:36:41;;;;;;;24.70;23.30;;;;;;;-141.02;100.00;39834.78;5093819;28;20285;-66
2024/01/10 06:39:12;;;;;;;24.33;22.93;;;;;;;-141.02;100.00;39758.06;5093713;28;20668;-70
2024/01/10 06:41:39;;;;;;;24.87;23.47;;;;;;;-141.02;100.00;39825.19;5093392;28;20277;-70
2024/01/10 06:44:08;;;;;;;24.83;23.43;;;;;;;-141.02;100.00;39923.03;5093333;28;20280;-70
2024/01/10 06:46:35;;;;;;;25.03;23.63;;;;;;;-141.02;100.00;40024.69;5093518;28;20312;-72
2024/01/10 06:49:02;;;;;;;26.57;25.07;;;;;;;-141.02;100.00;39984.41;5093518;28;20259;-71
2024/01/10 06:51:29;;;;;;;25.30;23.90;;;;;;;-141.02;100.00;40026.59;5093175;28;20617;-71
2024/01/10 06:54:03;;;;;;;25.13;23.73;;;;;;;-141.02;100.00;40114.84;5093151;28;20194;-71
2024/01/10 06:56:30;;;;;;;25.03;23.63;;;;;;;-141.02;100.00;40130.19;5093137;28;20190;-71
2024/01/10 06:58:57;;;;;;;23.10;21.80;;;;;;;-141.02;100.00;40222.25;5093080;28;20215;-71
2024/01/10 07:01:25;;;;;;;21.97;20.77;;;;;;;-141.02;100.00;40289.41;5092970;28;20664;-69
2024/01/10 07:03:54;;;;;;;21.80;20.60;;;;;;;-141.02;100.00;40398.75;5092772;28;20708;-71
2024/01/10 07:06:21;;;;;;;21.70;20.50;;;;;;;-141.02;100.00;40479.31;5092742;28;20259;-71
2024/01/10 07:08:49;;;;;;;24.23;22.93;;;;;;;-141.02;100.00;40490.81;5092866;28;20289;-71
2024/01/10 07:11:16;;;;;;;23.07;21.77;;;;;;;-141.02;100.00;40448.63;5093238;28;20201;-71
2024/01/10 07:13:43;;;;;;;25.53;24.10;;;;;;;-141.02;100.00;40544.53;5093081;28;20281;-69
2024/01/10 07:16:11;;;;;;;26.87;25.37;;;;;;;-141.02;98.99;40594.41;5092699;28;20230;-71
2024/01/10 07:18:40;;;;;;;25.67;24.17;;;;;;;-141.02;97.32;40644.28;5092695;28;20739;-72
2024/01/10 07:21:09;;;;;;;25.90;24.30;;;;;;;-141.02;94.20;40628.94;5093039;28;20225;-72
2024/01/10 07:23:38;;;;;;;26.13;24.63;;;;;;;-141.02;90.02;40667.31;5092662;28;20198;-72
2024/01/10 07:26:05;;;;;;;27.10;25.50;;;;;;;-141.02;86.54;40705.69;5092935;28;20274;-72
2024/01/10 07:28:32;;;;;;;25.23;23.73;;;;;;;-141.02;76.86;40721.03;5092784;28;20226;-72
2024/01/10 07:31:00;;;;;;;26.53;24.93;;;;;;;-141.02;69.92;40790.09;5092763;28;20204;-71
2024/01/10 07:33:27;;;;;;;26.20;24.60;;;;;;;-141.02;65.29;40841.91;5092439;28;20194;-72
2024/01/10 07:35:56;;;;;;;26.50;24.80;;;;;;;-141.02;65.06;40887.97;5092389;28;20719;-71
2024/01/10 07:38:22;;;;;;;26.50;24.80;;;;;;;-141.02;66.25;40907.16;5092425;28;20197;-72
2024/01/10 07:40:49;;;;;;;27.53;25.83;;;;;;;-141.02;67.58;40928.25;5092638;28;20198;-71
2024/01/10 07:43:16;;;;;;;25.57;23.97;;;;;;;-141.02;67.10;40907.16;5092335;28;20284;-71
2024/01/10 07:45:43;;;;;;;24.03;22.43;;;;;;;-141.02;67.35;40951.28;5092259;28;20194;-70
2024/01/10 07:48:11;;;;;;;23.70;22.07;;;;;;;-141.02;62.54;40981.97;5092454;28;20226;-71
2024/01/10 07:50:37;;;;;;;23.53;21.93;;;;;;;-141.02;62.68;41054.88;5092616;28;20198;-70
2024/01/10 07:53:07;;;;;;;24.77;22.97;;;;;;;-141.02;65.42;41085.59;5092461;28;20277;-70
2024/01/10 07:55:34;;;;;;;22.50;20.80;;;;;;;-141.02;72.32;41081.75;5092507;28;20205;-70
2024/01/10 07:58:01;;;;;;;22.70;21.17;;;;;;;-141.02;77.41;41081.75;5092156;28;20280;-70
2024/01/10 08:00:30;;;;;;;25.43;23.53;;;;;;;-141.02;66.25;41099.00;5092431;28;20190;-70
2024/01/10 08:02:58;;;;;;;24.73;22.93;;;;;;;-141.02;62.21;41079.81;5092961;28;20197;-71
2024/01/10 08:05:25;;;;;;;26.70;24.90;;;;;;;-141.02;66.66;41097.09;5092093;28;20200;-72
2024/01/10 08:07:52;;;;;;;26.50;24.80;;;;;;;-141.02;65.13;41087.50;5092288;28;20225;-72
2024/01/10 08:10:20;;;;;;;29.00;27.10;;;;;;;-141.02;63.14;41143.16;5092040;28;20205;-71
2024/01/10 08:12:47;;;;;;;27.80;25.90;;;;;;;-141.02;65.19;41150.81;5092327;28;20227;-71
2024/01/10 08:15:15;;;;;;;28.30;26.50;;;;;;;-141.02;63.31;41122.03;5091797;28;20225;-69
2024/01/10 08:17:43;;;;;;;27.80;25.80;;;;;;;-141.02;58.42;41131.63;5094654;28;20205;-68
2024/01/10 08:20:11;;;;;;;24.37;22.57;;;;;;;-141.02;57.08;41200.72;5096112;28;20577;-68
2024/01/10 08:22:38;;;;;;;24.93;23.23;;;;;;;-141.02;59.50;41237.16;5096027;28;20205;-67
2024/01/10 08:25:06;;;;;;;25.13;23.33;;;;;;;-141.02;59.54;41239.09;5096388;28;20202;-67
2024/01/10 08:27:34;;;;;;;23.90;22.13;;;;;;;-141.02;57.95;41246.75;5095909;28;20308;-67
2024/01/10 08:30:04;;;;;;;22.73;20.93;;;;;;;-141.02;59.79;41335.03;5095964;28;20609;-67
2024/01/10 08:32:31;;;;;;;22.80;21.00;;;;;;;-141.02;55.87;41333.09;5096273;28;20208;-67
2024/01/10 08:34:59;;;;;;;23.03;21.13;;;;;;;-141.02;57.72;41369.56;5095898;28;20194;-65
2024/01/10 08:37:25;;;;;;;28.07;25.97;;;;;;;-141.02;58.20;41369.56;5096118;28;20201;-66
2024/01/10 08:39:53;;;;;;;27.00;25.00;;;;;;;-141.02;59.84;41365.72;5095733;28;20250;-68
2024/01/10 08:42:20;;;;;;;26.40;24.40;;;;;;;-141.02;58.98;41398.34;5096005;28;20200;-68
2024/01/10 08:44:49;;;;;;;24.93;23.13;;;;;;;-141.02;58.32;41365.72;5095770;28;20205;-70
2024/01/10 08:47:16;;;;;;;24.90;23.00;;;;;;;-141.02;58.88;41350.38;5095812;28;20222;-71
2024/01/10 08:49:43;;;;;;;24.87;23.07;;;;;;;-141.02;60.40;41402.19;5095887;28;20225;-72
2024/01/10 08:52:11;;;;;;;24.00;22.30;;;;;;;-141.02;61.55;41400.28;5095801;28;20224;-72
2024/01/10 08:54:38;;;;;;;29.70;27.60;;;;;;;-141.02;60.72;41396.44;5095473;28;20664;-75
2024/01/10 08:57:05;;;;;;;29.53;27.63;;;;;;;-141.02;61.52;41342.69;5095341;28;20208;-75
2024/01/10 08:59:32;;;;;;;29.23;27.13;;;;;;;-141.02;60.81;41400.28;5095418;28;20672;-75
2024/01/10 09:02:01;;;;;;;23.43;21.67;;;;;;;-141.02;63.72;41398.34;5095652;28;20277;-75
2024/01/10 09:04:28;;;;;;;25.13;23.33;;;;;;;-141.02;60.39;41384.91;5095318;28;20230;-74
2024/01/10 09:06:55;;;;;;;24.43;22.63;;;;;;;-141.02;60.42;41430.97;5095588;28;20273;-73
2024/01/10 09:09:22;;;;;;;24.53;22.73;;;;;;;-141.02;64.82;41421.38;5096136;28;20236;-71
2024/01/10 09:11:50;;;;;;;23.87;22.17;;;;;;;-141.02;71.45;41438.66;5095538;28;20288;-71
2024/01/10 09:14:17;;;;;;;24.10;22.40;;;;;;;-141.02;63.22;41407.94;5095293;28;20198;-70
2024/01/10 09:16:44;;;;;;;28.30;26.20;;;;;;;-141.02;61.69;41419.47;5095113;28;20679;-70
2024/01/10 09:19:12;;;;;;;27.33;25.30;;;;;;;-141.02;60.79;41442.50;5094999;28;20663;-70
2024/01/10 09:21:40;;;;;;;21.70;20.00;;;;;;;-141.02;62.44;41446.31;5094959;28;20201;-69
2024/01/10 09:24:10;;;;;;;23.00;21.20;;;;;;;-141.02;63.96;41488.53;5094940;28;20209;-69
2024/01/10 09:26:37;;;;;;;22.83;21.03;;;;;;;-141.02;65.35;41450.16;5095241;28;20193;-69
2024/01/10 09:29:05;;;;;;;22.63;20.83;;;;;;;-141.02;65.63;41501.97;5094132;28;20222;-68
2024/01/10 09:31:32;;;;;;;24.23;22.43;;;;;;;-141.02;62.53;41465.50;5094840;28;20674;-68
2024/01/10 09:33:59;;;;;;;24.43;22.63;;;;;;;-141.02;58.32;41477.03;5095059;28;20706;-68
2024/01/10 09:36:28;;;;;;;24.07;22.27;;;;;;;-141.02;64.51;41496.22;5094679;28;20240;-67
2024/01/10 09:38:55;;;;;;;24.10;22.30;;;;;;;-141.02;61.36;41463.59;5094594;28;20197;-68
2024/01/10 09:41:23;;;;;;;25.07;23.17;;;;;;;-141.02;66.97;41507.72;5094607;28;20726;-68
2024/01/10 09:43:51;;;;;;;25.53;23.63;;;;;;;-141.02;64.88;41515.41;5094826;28;20226;-68
2024/01/10 09:46:19;;;;;;;24.00;22.10;;;;;;;-141.02;61.34;41511.56;5094460;28;20686;-68
2024/01/10 09:48:46;;;;;;;24.87;23.07;;;;;;;-141.02;65.68;41473.19;5094378;28;20229;-68
2024/01/10 09:51:14;;;;;;;24.57;22.67;;;;;;;-141.02;67.88;41542.28;5094415;28;20190;-68
2024/01/10 09:53:50;;;;;;;24.57;22.77;;;;;;;-141.02;62.56;41507.72;5094667;28;20284;-68
2024/01/10 09:56:17;;;;;;;24.37;22.53;;;;;;;-141.02;64.99;41561.47;5094336;28;20186;-68
2024/01/10 09:58:46;;;;;;;25.03;23.13;;;;;;;-141.02;61.57;41515.41;5094537;28;20194;-68
2024/01/10 10:01:13;;;;;;;24.53;22.63;;;;;;;-141.02;62.14;41548.03;5094199;28;20200;-67
2024/01/10 10:03:45;;;;;;;24.57;22.67;;;;;;;-141.02;59.95;41503.91;5094500;28;20198;-67
2024/01/10 10:06:12;;;;;;;22.93;21.03;;;;;;;-141.02;61.82;41526.91;5094148;28;20281;-66
2024/01/10 10:08:41;;;;;;;22.80;20.90;;;;;;;-141.02;62.12;41521.16;5093947;28;20316;-66
2024/01/10 10:11:13;;;;;;;23.67;21.67;;;;;;;-141.02;62.76;41532.69;5094079;28;20280;-65
2024/01/10 10:13:41;;;;;;;28.53;26.43;;;;;;;-141.02;62.02;41542.28;5093999;28;20197;-66
2024/01/10 10:16:11;;;;;;;27.67;25.57;;;;;;;-141.02;59.31;41540.34;5093765;28;20233;-66
2024/01/10 10:18:41;;;;;;;23.83;21.93;;;;;;;-141.02;60.12;41561.47;5094188;28;20251;-65
2024/01/10 10:21:11;;;;;;;25.70;23.80;;;;;;;-141.02;58.88;41546.13;5093859;28;20223;-65
2024/01/10 10:23:38;;;;;;;25.40;23.50;;;;;;;-141.02;58.59;41603.69;5093755;28;20229;-66
2024/01/10 10:26:19;;;;;;;25.47;23.57;;;;;;;-141.02;57.54;41580.66;5094032;28;20190;-65
2024/01/10 10:28:47;;;;;;;24.90;23.00;;;;;;;-141.02;56.35;41594.09;5093909;28;20220;-66
2024/01/10 10:31:14;;;;;;;29.97;27.87;;;;;;;-141.02;59.58;41565.31;5093613;28;20193;-65
2024/01/10 10:33:41;;;;;;;30.10;27.90;;;;;;;-141.02;58.59;41603.69;5093553;28;20193;-67
2024/01/10 10:36:09;;;;;;;26.17;24.17;;;;;;;-141.02;56.63;41601.75;5093832;28;20248;-66
2024/01/10 10:38:36;;;;;;;25.40;23.40;;;;;;;-141.02;56.56;41571.06;5093409;28;20204;-65
2024/01/10 10:41:07;;;;;;;24.70;22.80;;;;;;;-141.02;59.83;41605.59;5092633;28;20205;-65
2024/01/10 10:43:37;;;;;;;25.50;23.60;;;;;;;-141.02;60.88;41601.75;5093458;28;20190;-66
2024/01/10 10:46:05;;;;;;;24.33;22.43;;;;;;;-141.02;57.94;41582.56;5093297;28;20201;-66
2024/01/10 10:48:35;;;;;;;30.77;28.57;;;;;;;-141.02;59.94;41592.16;5093184;28;20226;-66
2024/01/10 10:51:07;;;;;;;29.83;27.73;;;;;;;-141.02;61.01;41576.81;5093185;28;20576;-65
2024/01/10 10:53:36;;;;;;;23.13;21.13;;;;;;;-141.02;62.17;41553.78;5093258;28;20190;-66
2024/01/10 10:56:05;;;;;;;23.40;21.43;;;;;;;-141.02;64.54;41592.16;5093138;28;20197;-66
2024/01/10 10:58:37;;;;;;;23.83;21.83;;;;;;;-141.02;59.54;41572.97;5093104;28;20202;-66